Time;durP1;ratioP1;P1;durP2;ratioP2;P2;SDS_P1;SDS_P2;PMS_P1;PMS_P2;Temp;Humidity;BMP_temperature;BMP_pressure;BME280_temperature;BME280_humidity;BME280_pressure;Samples;Min_cycle;Max_cycle;Signal;HPM_P1;HPM_P2
2022/10/05 00:02:00;;;;;;;3.50;2.78;;;9.10;99.80;;;;;;5017608;28;20038;-82
2022/10/05 00:04:27;;;;;;;2.47;2.17;;;9.00;99.80;;;;;;5017958;28;20025;-83
2022/10/05 00:07:05;;;;;;;3.42;2.58;;;9.00;99.90;;;;;;5009789;28;20069;-83
2022/10/05 00:09:34;;;;;;;2.85;2.53;;;8.90;99.90;;;;;;5038615;28;20423;-83
2022/10/05 00:12:13;;;;;;;3.53;2.60;;;9.00;99.90;;;;;;5020750;28;20041;-82
2022/10/05 00:14:39;;;;;;;4.35;2.40;;;9.00;99.90;;;;;;5018487;28;20021;-84
2022/10/05 00:17:09;;;;;;;5.20;2.33;;;9.00;99.90;;;;;;5018135;28;20105;-82
2022/10/05 00:19:38;;;;;;;4.97;2.70;;;9.00;99.90;;;;;;5035970;28;20119;-83
2022/10/05 00:22:16;;;;;;;4.22;2.45;;;8.90;99.90;;;;;;5017826;28;20040;-83
2022/10/05 00:24:43;;;;;;;3.70;2.20;;;8.90;99.90;;;;;;5023733;28;20017;-82
2022/10/05 00:27:17;;;;;;;2.80;2.40;;;8.90;99.90;;;;;;5007741;28;20049;-82
2022/10/05 00:29:43;;;;;;;3.22;2.53;;;8.90;99.90;;;;;;5036372;28;20037;-84
2022/10/05 00:32:09;;;;;;;3.20;2.22;;;8.90;99.90;;;;;;5014857;28;20086;-84
2022/10/05 00:34:36;;;;;;;3.03;2.22;;;8.90;99.90;;;;;;5040370;28;20030;-83
2022/10/05 00:37:03;;;;;;;3.10;2.40;;;8.90;99.90;;;;;;5036192;28;20152;-83
2022/10/05 00:39:29;;;;;;;3.85;1.95;;;8.90;99.90;;;;;;5036981;28;20502;-83
2022/10/05 00:42:09;;;;;;;4.72;2.40;;;8.90;99.90;;;;;;5035115;28;20080;-82
2022/10/05 00:45:01;;;;;;;2.65;2.00;;;8.90;99.90;;;;;;4992553;28;20050;-84
2022/10/05 00:47:57;;;;;;;2.85;2.35;;;8.90;99.90;;;;;;5035054;28;20041;-82
2022/10/05 00:51:01;;;;;;;4.72;2.53;;;8.80;99.90;;;;;;5035242;28;20455;-84
2022/10/05 00:53:44;;;;;;;3.58;2.83;;;8.80;99.90;;;;;;5015670;28;20021;-82
2022/10/05 00:57:00;;;;;;;4.90;2.22;;;8.80;99.90;;;;;;5018686;28;20014;-83
2022/10/05 01:00:02;;;;;;;4.38;2.33;;;8.80;99.90;;;;;;4967980;28;20114;-83
2022/10/05 01:02:53;;;;;;;3.92;2.75;;;8.80;99.90;;;;;;4954647;29;20047;-83
2022/10/05 01:05:38;;;;;;;2.40;2.08;;;8.70;99.90;;;;;;5008228;28;20541;-83
2022/10/05 01:08:40;;;;;;;3.15;2.47;;;8.70;99.90;;;;;;5041397;28;20010;-82
2022/10/05 01:11:33;;;;;;;4.13;2.33;;;8.60;99.90;;;;;;5029646;28;20034;-83
2022/10/05 01:14:08;;;;;;;3.30;2.22;;;8.60;99.90;;;;;;5025044;28;20116;-84
2022/10/05 01:16:58;;;;;;;3.28;2.55;;;8.60;99.90;;;;;;5035581;28;20028;-83
2022/10/05 01:19:48;;;;;;;2.92;2.40;;;8.60;99.90;;;;;;5035491;28;20025;-83
2022/10/05 01:22:48;;;;;;;4.45;2.20;;;8.60;99.90;;;;;;5012768;28;20037;-83
2022/10/05 01:25:46;;;;;;;5.20;3.17;;;8.60;99.90;;;;;;5003814;28;20087;-84
2022/10/05 01:28:24;;;;;;;3.13;2.10;;;8.60;99.90;;;;;;4990586;28;20459;-84
2022/10/05 01:30:56;;;;;;;3.45;2.35;;;8.60;99.90;;;;;;5025647;28;20436;-84
2022/10/05 01:33:33;;;;;;;3.58;2.50;;;8.60;99.90;;;;;;5015600;28;20077;-83
2022/10/05 01:36:41;;;;;;;4.72;2.45;;;8.70;99.90;;;;;;5017368;28;20018;-84
2022/10/05 01:39:25;;;;;;;4.55;2.75;;;8.60;99.90;;;;;;5004577;28;20483;-82
2022/10/05 01:42:06;;;;;;;3.30;2.47;;;8.60;99.90;;;;;;5021516;28;20128;-82
2022/10/05 01:44:51;;;;;;;3.10;2.05;;;8.60;99.90;;;;;;5038086;28;20056;-83
2022/10/05 01:47:44;;;;;;;3.55;2.22;;;8.60;99.90;;;;;;5034253;28;20397;-82
2022/10/05 01:50:30;;;;;;;4.38;2.85;;;8.60;99.90;;;;;;5015501;28;20053;-83
2022/10/05 01:53:13;;;;;;;2.83;2.08;;;8.50;99.90;;;;;;5013316;28;20030;-84
2022/10/05 01:55:48;;;;;;;3.35;2.55;;;8.60;99.90;;;;;;5008708;28;20052;-86
2022/10/05 01:58:34;;;;;;;6.60;2.80;;;8.60;99.90;;;;;;5033563;28;20494;-84
2022/10/05 02:01:08;;;;;;;4.07;2.67;;;8.60;99.90;;;;;;5031872;28;20033;-84
2022/10/05 02:04:06;;;;;;;5.28;2.35;;;8.50;99.90;;;;;;5033613;28;20025;-86
2022/10/05 02:06:40;;;;;;;4.82;2.47;;;8.40;99.90;;;;;;5028395;28;20040;-83
2022/10/05 02:09:28;;;;;;;2.88;2.25;;;8.30;99.90;;;;;;5024606;28;20078;-83
2022/10/05 02:12:06;;;;;;;4.38;2.20;;;8.30;99.90;;;;;;5033556;28;20025;-83
2022/10/05 02:14:37;;;;;;;3.75;3.10;;;8.30;99.90;;;;;;5033305;28;20422;-83
2022/10/05 02:17:15;;;;;;;3.03;2.20;;;8.20;99.90;;;;;;5033599;28;20113;-81
2022/10/05 02:19:47;;;;;;;3.72;2.83;;;8.10;99.90;;;;;;5002296;28;20022;-84
2022/10/05 02:22:27;;;;;;;3.38;2.80;;;8.10;99.90;;;;;;5019663;28;20064;-83
2022/10/05 02:25:01;;;;;;;3.70;2.67;;;8.10;99.90;;;;;;5036148;28;20033;-82
2022/10/05 02:27:31;;;;;;;3.78;2.70;;;8.10;99.90;;;;;;5033823;28;20022;-84
2022/10/05 02:30:06;;;;;;;2.88;2.38;;;8.10;99.90;;;;;;5015839;28;20027;-83
2022/10/05 02:32:43;;;;;;;3.65;2.75;;;8.00;99.90;;;;;;5038627;28;20119;-83
2022/10/05 02:35:15;;;;;;;3.58;2.53;;;8.00;99.90;;;;;;5045892;28;20057;-82
2022/10/05 02:38:26;;;;;;;3.00;2.50;;;8.00;99.90;;;;;;5042480;28;20087;-82
2022/10/05 02:41:00;;;;;;;3.45;2.45;;;8.00;99.90;;;;;;5015384;28;20510;-83
2022/10/05 02:43:45;;;;;;;4.20;2.72;;;8.00;99.90;;;;;;5015366;28;20471;-83
2022/10/05 02:46:33;;;;;;;4.30;3.25;;;8.00;99.90;;;;;;5032994;28;20079;-83
2022/10/05 02:49:29;;;;;;;5.93;2.90;;;8.10;99.90;;;;;;5023836;28;20018;-83
2022/10/05 02:52:39;;;;;;;4.00;3.03;;;8.10;99.90;;;;;;5032611;28;20033;-84
2022/10/05 02:55:19;;;;;;;4.78;3.30;;;8.20;99.90;;;;;;5003900;28;20510;-83
2022/10/05 02:58:12;;;;;;;3.33;2.75;;;8.20;99.90;;;;;;5006534;28;20022;-84
2022/10/05 03:01:03;;;;;;;3.47;2.42;;;8.20;99.90;;;;;;5032117;28;20052;-83
2022/10/05 03:03:42;;;;;;;4.20;2.80;;;8.20;99.90;;;;;;5009336;28;20037;-81
2022/10/05 03:06:27;;;;;;;4.30;3.42;;;8.10;99.90;;;;;;5033038;28;20117;-84
2022/10/05 03:09:02;;;;;;;5.13;3.22;;;8.10;99.90;;;;;;4995793;28;20036;-84
2022/10/05 03:12:01;;;;;;;5.15;3.70;;;8.10;99.90;;;;;;5020167;28;20071;-84
2022/10/05 03:14:43;;;;;;;7.22;3.53;;;8.20;99.90;;;;;;5020754;28;20041;-84
2022/10/05 03:17:24;;;;;;;4.32;2.97;;;8.20;99.90;;;;;;5019399;28;20045;-83
2022/10/05 03:20:11;;;;;;;5.72;3.60;;;8.20;99.90;;;;;;5048211;28;20022;-84
2022/10/05 03:22:37;;;;;;;3.90;3.08;;;8.20;99.90;;;;;;5031212;28;20033;-84
2022/10/05 03:25:21;;;;;;;3.83;3.28;;;8.30;99.90;;;;;;5055413;28;20508;-84
2022/10/05 03:27:50;;;;;;;3.45;2.65;;;8.30;99.90;;;;;;5038488;28;20183;-83
2022/10/05 03:30:20;;;;;;;3.78;3.05;;;8.20;99.90;;;;;;5038086;28;20431;-84
2022/10/05 03:33:11;;;;;;;3.85;3.35;;;8.20;99.90;;;;;;5042123;28;20025;-83
2022/10/05 03:36:05;;;;;;;4.13;3.10;;;8.20;99.90;;;;;;5044403;28;20371;-84
2022/10/05 03:38:57;;;;;;;3.45;2.50;;;8.10;99.90;;;;;;4960528;29;20090;-85
2022/10/05 03:41:41;;;;;;;4.05;2.60;;;8.10;99.90;;;;;;4951574;28;20051;-84
2022/10/05 03:44:25;;;;;;;2.72;2.13;;;8.10;99.90;;;;;;4933146;29;20040;-83
2022/10/05 03:47:09;;;;;;;3.47;2.42;;;8.10;99.90;;;;;;4921857;29;20449;-84
2022/10/05 03:50:02;;;;;;;2.85;2.20;;;8.10;99.90;;;;;;4956738;28;20167;-84
2022/10/05 03:52:40;;;;;;;3.00;2.40;;;8.00;99.90;;;;;;4958644;29;20489;-85
2022/10/05 03:55:16;;;;;;;3.10;1.92;;;8.00;99.90;;;;;;4959309;29;20027;-85
2022/10/05 03:57:44;;;;;;;3.42;2.35;;;8.10;99.90;;;;;;4925861;29;20104;-83
2022/10/05 04:00:14;;;;;;;;;;;8.00;99.90;;;;;;4958058;28;20339;-85
2022/10/05 04:02:56;;;;;;;4.90;2.30;;;8.10;99.90;;;;;;4928586;29;19922;-84
2022/10/05 04:05:29;;;;;;;3.50;2.00;;;8.00;99.90;;;;;;4941344;29;20027;-85
2022/10/05 04:08:00;;;;;;;4.72;2.33;;;8.00;99.90;;;;;;4950633;29;20039;-85
2022/10/05 04:10:56;;;;;;;4.45;2.28;;;8.10;99.90;;;;;;4934192;29;20023;-86
2022/10/05 04:13:57;;;;;;;6.00;3.00;;;8.10;99.90;;;;;;4927393;29;20039;-83
2022/10/05 04:16:40;;;;;;;4.88;2.83;;;8.10;99.90;;;;;;4961967;28;20092;-83
2022/10/05 04:19:14;;;;;;;3.85;2.85;;;8.10;99.90;;;;;;4999506;28;20026;-84
2022/10/05 04:21:56;;;;;;;3.67;2.75;;;8.10;99.90;;;;;;4999557;28;20526;-84
2022/10/05 04:24:42;;;;;;;5.10;2.22;;;8.20;99.90;;;;;;5000383;28;20381;-83
2022/10/05 04:27:11;;;;;;;3.83;2.47;;;8.20;99.90;;;;;;5020945;28;20092;-86
2022/10/05 04:29:40;;;;;;;3.75;2.58;;;8.30;99.90;;;;;;5025748;28;20017;-84
2022/10/05 04:32:14;;;;;;;3.88;2.50;;;8.30;99.90;;;;;;5033870;28;20072;-84
2022/10/05 04:34:52;;;;;;;3.33;2.70;;;8.30;99.90;;;;;;5049962;28;20022;-84
2022/10/05 04:37:25;;;;;;;;;;;8.30;99.90;;;;;;5029135;28;20443;-85
2022/10/05 04:40:09;;;;;;;5.00;2.50;;;8.30;99.90;;;;;;5037642;28;19909;-84
2022/10/05 04:42:53;;;;;;;5.80;2.92;;;8.30;99.90;;;;;;5005156;28;20033;-84
2022/10/05 04:46:01;;;;;;;4.95;3.05;;;8.30;99.90;;;;;;5017225;28;20038;-86
2022/10/05 04:48:45;;;;;;;3.78;3.15;;;8.30;99.90;;;;;;5029918;28;20025;-86
2022/10/05 04:51:17;;;;;;;3.53;2.95;;;8.30;99.90;;;;;;5010446;28;20039;-85
2022/10/05 04:54:24;;;;;;;4.57;2.90;;;8.40;99.90;;;;;;5016181;28;20022;-84
2022/10/05 04:57:00;;;;;;;3.75;2.78;;;8.30;99.90;;;;;;4981245;28;20014;-84
2022/10/05 04:59:53;;;;;;;5.03;3.33;;;8.40;99.90;;;;;;5022130;28;20430;-86
2022/10/05 05:02:50;;;;;;;4.18;3.25;;;8.40;99.90;;;;;;5019994;28;20480;-85
2022/10/05 05:05:27;;;;;;;4.57;3.30;;;8.40;99.90;;;;;;5028258;28;20028;-85
2022/10/05 05:08:08;;;;;;;4.87;2.90;;;8.30;99.90;;;;;;5036495;28;20024;-85
2022/10/05 05:10:40;;;;;;;5.93;2.78;;;8.40;99.90;;;;;;5028741;28;20546;-87
2022/10/05 05:13:15;;;;;;;4.95;2.88;;;8.50;99.90;;;;;;5024512;28;20017;-88
2022/10/05 05:15:56;;;;;;;4.57;2.78;;;8.60;99.90;;;;;;5038023;28;20022;-87
2022/10/05 05:18:44;;;;;;;5.03;3.30;;;8.50;99.90;;;;;;5014407;28;20502;-86
2022/10/05 05:21:39;;;;;;;3.63;2.28;;;8.60;99.90;;;;;;5025787;28;20042;-84
2022/10/05 05:24:09;;;;;;;2.58;2.33;;;8.60;99.90;;;;;;4998651;28;20065;-87
2022/10/05 05:27:04;;;;;;;2.97;2.00;;;8.60;99.90;;;;;;5025456;28;20018;-84
2022/10/05 05:29:39;;;;;;;2.35;1.75;;;8.70;99.90;;;;;;4987626;28;20088;-85
2022/10/05 05:32:12;;;;;;;3.17;2.00;;;8.70;99.90;;;;;;5022266;28;20098;-87
2022/10/05 05:35:22;;;;;;;2.30;1.58;;;8.80;99.90;;;;;;5035629;28;20028;-85
2022/10/05 05:38:19;;;;;;;5.00;1.80;;;8.80;99.90;;;;;;4957142;28;20035;-86
2022/10/05 05:40:49;;;;;;;1.63;1.40;;;8.90;99.90;;;;;;5009613;28;20356;-84
2022/10/05 05:43:29;;;;;;;2.97;1.63;;;8.80;99.90;;;;;;5019499;28;20029;-87
2022/10/05 05:45:57;;;;;;;2.65;1.70;;;8.80;99.90;;;;;;5014324;28;20040;-84
2022/10/05 05:48:37;;;;;;;3.97;1.90;;;8.80;99.90;;;;;;5039306;28;20032;-84
2022/10/05 05:51:12;;;;;;;3.22;1.38;;;8.80;99.90;;;;;;5012032;28;20032;-86
2022/10/05 05:53:45;;;;;;;2.30;1.90;;;8.80;99.90;;;;;;5039407;28;20032;-87
2022/10/05 05:56:33;;;;;;;2.85;1.90;;;8.90;99.90;;;;;;5008520;28;20094;-87
2022/10/05 05:59:24;;;;;;;3.47;2.05;;;8.90;99.90;;;;;;5018549;28;20049;-88
2022/10/05 06:02:05;;;;;;;3.38;2.10;;;8.90;99.90;;;;;;5018489;28;20080;-87
2022/10/05 06:04:43;;;;;;;3.22;2.20;;;9.00;99.90;;;;;;5018462;28;20052;-87
2022/10/05 06:07:17;;;;;;;3.85;1.92;;;9.10;99.90;;;;;;5018777;28;20451;-87
2022/10/05 06:09:51;;;;;;;4.65;2.53;;;9.10;99.90;;;;;;4997915;28;20026;-88
2022/10/05 06:12:39;;;;;;;5.30;2.58;;;9.10;99.90;;;;;;5016395;28;20037;-87
2022/10/05 06:15:27;;;;;;;15.32;11.50;;;9.10;99.90;;;;;;5027732;28;20030;-87
2022/10/05 06:17:57;;;;;;;2.83;2.05;;;9.20;99.90;;;;;;4981814;28;20026;-88
2022/10/05 06:20:52;;;;;;;3.75;1.92;;;9.30;99.90;;;;;;5028640;28;20052;-89
2022/10/05 06:23:33;;;;;;;4.18;2.47;;;9.40;99.90;;;;;;5016650;28;20037;-87
2022/10/05 06:26:23;;;;;;;3.13;2.35;;;9.40;99.90;;;;;;5017157;28;20029;-89
2022/10/05 06:28:56;;;;;;;4.45;2.78;;;9.40;99.90;;;;;;5025723;28;20030;-88
2022/10/05 06:31:40;;;;;;;2.42;1.70;;;9.50;99.90;;;;;;5001337;28;20400;-87
2022/10/05 06:34:26;;;;;;;4.32;2.00;;;9.40;99.90;;;;;;5026210;28;20092;-87
2022/10/05 06:37:00;;;;;;;4.78;3.28;;;9.20;99.90;;;;;;5014978;28;20094;-86
2022/10/05 06:39:41;;;;;;;3.60;1.95;;;9.20;99.90;;;;;;5045581;28;20070;-86
2022/10/05 06:42:44;;;;;;;3.05;1.98;;;9.20;99.90;;;;;;5034096;28;20431;-86
2022/10/05 06:45:28;;;;;;;1.60;1.20;;;9.40;99.90;;;;;;5028559;28;20041;-85
2022/10/05 06:48:22;;;;;;;2.65;1.55;;;9.40;99.90;;;;;;5033908;28;20030;-84
2022/10/05 06:50:59;;;;;;;1.90;1.40;;;9.40;99.90;;;;;;4977967;28;20030;-86
2022/10/05 06:53:39;;;;;;;5.13;2.20;;;9.60;99.90;;;;;;5033463;28;20075;-85
2022/10/05 06:56:21;;;;;;;3.33;1.42;;;9.80;99.90;;;;;;5002198;28;20044;-86
2022/10/05 06:58:59;;;;;;;4.45;1.77;;;10.00;99.90;;;;;;5048703;28;20108;-85
2022/10/05 07:01:32;;;;;;;2.65;1.67;;;10.20;99.90;;;;;;5039878;28;20069;-86
2022/10/05 07:04:16;;;;;;;2.67;1.60;;;10.40;99.90;;;;;;5033336;28;20491;-85
2022/10/05 07:06:57;;;;;;;3.65;1.50;;;10.50;99.90;;;;;;5035178;28;20025;-86
2022/10/05 07:09:39;;;;;;;2.70;1.75;;;10.40;99.30;;;;;;4996478;28;20045;-84
2022/10/05 07:12:20;;;;;;;2.33;0.77;;;10.40;99.30;;;;;;5025819;28;20025;-85
2022/10/05 07:14:52;;;;;;;2.78;1.35;;;10.40;98.60;;;;;;5011374;28;20119;-85
2022/10/05 07:17:43;;;;;;;1.35;1.15;;;10.30;98.70;;;;;;5010422;28;20025;-86
2022/10/05 07:20:25;;;;;;;1.02;0.98;;;10.40;98.50;;;;;;5020103;28;20096;-85
2022/10/05 07:23:02;;;;;;;2.38;1.60;;;10.40;98.20;;;;;;5028435;28;20056;-85
2022/10/05 07:25:49;;;;;;;2.38;1.90;;;10.30;98.40;;;;;;5030397;28;20099;-85
2022/10/05 07:28:31;;;;;;;3.88;1.70;;;10.20;98.50;;;;;;5026541;28;20021;-86
2022/10/05 07:31:12;;;;;;;4.15;1.95;;;10.20;98.70;;;;;;5021387;28;20495;-84
2022/10/05 07:34:05;;;;;;;2.92;1.90;;;10.20;98.60;;;;;;5023809;28;20391;-84
2022/10/05 07:39:53;;;;;;;2.95;1.98;;;10.30;98.80;;;;;;5015642;28;20078;-84
2022/10/05 07:42:30;;;;;;;4.35;2.13;;;10.30;98.60;;;;;;5014872;28;20072;-84
2022/10/05 07:45:19;;;;;;;6.30;2.28;;;10.40;98.50;;;;;;5004151;28;20482;-85
2022/10/05 07:47:57;;;;;;;2.60;2.00;;;10.60;98.30;;;;;;5008028;28;20030;-85
2022/10/05 07:50:34;;;;;;;3.28;1.85;;;10.50;97.80;;;;;;5002328;28;20029;-87
2022/10/05 07:53:22;;;;;;;4.65;2.38;;;10.50;97.90;;;;;;5000136;28;20076;-84
2022/10/05 07:55:53;;;;;;;5.85;3.00;;;10.50;97.80;;;;;;4988789;28;20022;-85
2022/10/05 07:58:23;;;;;;;9.68;6.10;;;10.40;98.00;;;;;;5032044;28;20028;-84
2022/10/05 08:01:18;;;;;;;7.03;3.40;;;10.40;98.30;;;;;;5027816;28;20045;-83
2022/10/05 08:03:56;;;;;;;5.35;2.10;;;10.30;98.30;;;;;;5007245;28;20038;-82
2022/10/05 08:06:38;;;;;;;6.80;3.80;;;10.20;98.10;;;;;;5019510;28;20030;-81
2022/10/05 08:09:27;;;;;;;7.45;5.40;;;10.00;98.60;;;;;;5017746;28;20025;-83
2022/10/05 08:12:16;;;;;;;4.18;2.80;;;10.00;99.10;;;;;;5026522;28;20155;-81
2022/10/05 08:15:02;;;;;;;4.30;2.80;;;9.90;99.50;;;;;;4983601;28;20038;-82
2022/10/05 08:17:43;;;;;;;2.95;2.13;;;9.90;99.80;;;;;;5004665;28;20446;-86
2022/10/05 08:20:25;;;;;;;3.88;1.80;;;10.10;99.90;;;;;;5034596;28;20060;-85
2022/10/05 08:22:58;;;;;;;3.15;1.38;;;10.00;99.90;;;;;;5016460;28;20033;-87
2022/10/05 08:25:30;;;;;;;2.55;1.65;;;10.10;99.90;;;;;;5019721;28;20068;-85
2022/10/05 08:28:18;;;;;;;2.28;1.83;;;10.10;99.90;;;;;;5019403;28;20022;-86
2022/10/05 08:31:17;;;;;;;3.78;1.83;;;10.20;99.90;;;;;;5009055;28;20022;-82
2022/10/05 08:34:20;;;;;;;4.72;2.88;;;10.20;99.90;;;;;;4994143;28;20059;-84
2022/10/05 08:36:54;;;;;;;2.60;1.35;;;10.20;99.90;;;;;;5016906;28;20037;-84
2022/10/05 08:39:23;;;;;;;3.00;1.70;;;10.10;99.90;;;;;;5027488;28;20014;-82
2022/10/05 08:42:31;;;;;;;2.83;1.65;;;10.20;99.90;;;;;;5016908;28;20021;-83
2022/10/05 08:45:31;;;;;;;2.97;1.42;;;10.10;99.90;;;;;;5027104;28;20081;-80
2022/10/05 08:48:21;;;;;;;2.25;1.17;;;10.00;99.90;;;;;;5015372;28;20030;-83
2022/10/05 08:51:02;;;;;;;2.35;1.40;;;9.90;99.90;;;;;;5020849;28;20113;-84
2022/10/05 08:53:47;;;;;;;2.38;1.30;;;9.80;99.90;;;;;;5018406;28;20026;-82
2022/10/05 08:56:12;;;;;;;2.42;1.40;;;9.70;99.90;;;;;;5011215;28;20057;-85
2022/10/05 08:59:17;;;;;;;9.07;3.08;;;9.60;99.90;;;;;;5016830;28;20029;-83
2022/10/05 09:02:14;;;;;;;2.17;1.48;;;9.50;99.90;;;;;;4997351;28;20029;-81
2022/10/05 09:05:03;;;;;;;1.98;1.70;;;9.50;99.90;;;;;;5015355;28;20026;-84
2022/10/05 09:07:58;;;;;;;3.42;2.28;;;9.30;99.90;;;;;;5016593;28;20033;-84
2022/10/05 09:10:34;;;;;;;3.25;2.08;;;9.20;99.90;;;;;;4979902;28;20221;-83
2022/10/05 09:13:24;;;;;;;5.53;2.20;;;9.20;99.90;;;;;;5018596;28;20025;-81
2022/10/05 09:16:08;;;;;;;2.55;1.80;;;9.20;99.90;;;;;;5014594;28;20037;-83
2022/10/05 09:18:48;;;;;;;3.35;2.05;;;9.20;99.90;;;;;;5026384;28;20427;-82
2022/10/05 09:21:42;;;;;;;4.40;1.50;;;9.20;99.90;;;;;;5032505;28;20040;-83
2022/10/05 09:24:33;;;;;;;1.98;1.60;;;9.30;99.90;;;;;;5021173;28;20034;-83
2022/10/05 09:26:59;;;;;;;4.25;2.10;;;9.40;99.90;;;;;;4997766;28;20054;-84
2022/10/05 09:29:49;;;;;;;3.90;1.92;;;9.50;99.90;;;;;;5018915;28;20036;-82
2022/10/05 09:32:22;;;;;;;5.03;2.30;;;9.60;99.90;;;;;;5025776;28;20022;-83
2022/10/05 09:35:06;;;;;;;8.25;2.13;;;9.80;99.90;;;;;;5041445;28;20422;-82
2022/10/05 09:37:50;;;;;;;2.75;1.80;;;10.00;99.90;;;;;;5010202;28;20558;-84
2022/10/05 09:41:09;;;;;;;2.78;2.03;;;10.10;99.90;;;;;;5018490;28;20025;-85
2022/10/05 09:44:19;;;;;;;3.33;1.98;;;10.40;99.90;;;;;;5003520;28;20049;-83
2022/10/05 09:47:38;;;;;;;3.13;1.88;;;10.90;99.90;;;;;;4955135;28;20127;-84
2022/10/05 09:50:41;;;;;;;3.88;1.80;;;11.40;99.90;;;;;;4942990;29;20035;-82
2022/10/05 09:53:26;;;;;;;5.25;2.20;;;11.50;99.50;;;;;;5020788;28;20018;-83
2022/10/05 09:56:19;;;;;;;5.72;2.00;;;11.80;99.20;;;;;;5013390;28;20018;-85
2022/10/05 09:59:36;;;;;;;6.32;3.17;;;12.50;99.10;;;;;;5008355;28;20520;-83
2022/10/05 10:02:08;;;;;;;2.95;1.63;;;13.50;97.20;;;;;;4960319;28;20156;-83
2022/10/05 10:04:52;;;;;;;3.22;1.20;;;13.60;93.90;;;;;;5017351;28;20037;-90
2022/10/05 10:07:43;;;;;;;2.03;1.42;;;13.30;93.20;;;;;;5021570;28;20025;-83
2022/10/05 10:10:30;;;;;;;5.20;2.22;;;12.80;93.40;;;;;;5013511;28;20030;-82
2022/10/05 10:13:18;;;;;;;3.53;1.88;;;12.50;94.10;;;;;;5023356;28;20032;-84
2022/10/05 10:16:39;;;;;;;6.63;3.40;;;12.10;94.30;;;;;;5027533;28;20021;-85
2022/10/05 10:19:39;;;;;;;3.38;1.95;;;11.90;95.00;;;;;;4894458;29;20052;-85
2022/10/05 10:22:28;;;;;;;1.65;0.95;;;11.70;95.10;;;;;;4887112;29;20044;-86
2022/10/05 10:25:00;;;;;;;0.85;0.80;;;11.60;95.00;;;;;;4880053;29;20025;-84
2022/10/05 10:27:53;;;;;;;2.33;1.33;;;11.50;94.70;;;;;;4895417;29;20453;-84
2022/10/05 10:30:45;;;;;;;1.20;1.08;;;11.40;94.70;;;;;;4893026;29;20032;-83
2022/10/05 10:33:52;;;;;;;2.55;1.35;;;11.40;94.70;;;;;;4885509;29;20028;-82
2022/10/05 10:36:26;;;;;;;;;;;11.30;94.90;;;;;;4896957;29;20168;-81
2022/10/05 10:39:19;;;;;;;2.58;1.20;;;11.40;95.30;;;;;;4898759;29;20001;-83
2022/10/05 10:42:15;;;;;;;2.03;1.40;;;11.40;95.40;;;;;;4895039;29;20048;-84
2022/10/05 10:45:14;;;;;;;2.25;1.23;;;11.70;95.00;;;;;;4901695;29;20080;-84
2022/10/05 10:47:51;;;;;;;2.85;1.83;;;12.10;94.60;;;;;;4898943;29;20036;-82
2022/10/05 10:50:47;;;;;;;2.15;1.23;;;12.50;94.20;;;;;;4896557;29;20020;-84
2022/10/05 10:54:03;;;;;;;1.85;1.08;;;12.70;93.40;;;;;;4896595;29;20482;-83
2022/10/05 10:56:47;;;;;;;3.20;2.28;;;13.10;92.50;;;;;;4977221;28;20037;-83
2022/10/05 10:59:44;;;;;;;13.07;6.03;;;13.10;91.70;;;;;;5013023;28;20578;-83
2022/10/05 11:02:37;;;;;;;0.82;0.70;;;13.20;91.30;;;;;;5025755;28;20029;-87
2022/10/05 11:05:26;;;;;;;1.15;0.90;;;13.30;90.80;;;;;;5025710;28;20497;-82
2022/10/05 11:08:11;;;;;;;0.90;0.70;;;13.20;90.30;;;;;;5029650;28;20062;-83
2022/10/05 11:11:21;;;;;;;1.23;0.70;;;13.00;89.50;;;;;;5020302;28;20155;-84
2022/10/05 11:14:05;;;;;;;1.00;0.73;;;12.60;90.30;;;;;;4998018;28;20069;-82
2022/10/05 11:16:50;;;;;;;2.35;0.80;;;12.50;90.40;;;;;;5006363;28;20084;-84
2022/10/05 11:19:54;;;;;;;0.95;0.70;;;12.30;90.10;;;;;;5008575;28;20026;-83
2022/10/05 11:22:50;;;;;;;1.05;0.75;;;12.10;90.50;;;;;;4995643;28;20026;-83
2022/10/05 11:25:41;;;;;;;0.88;0.77;;;11.90;90.90;;;;;;5020240;28;20033;-83
2022/10/05 11:28:26;;;;;;;2.42;0.80;;;11.70;91.20;;;;;;5014980;28;20026;-83
2022/10/05 11:31:28;;;;;;;2.90;1.25;;;11.40;91.70;;;;;;5028061;28;20096;-80
2022/10/05 11:34:18;;;;;;;4.93;2.67;;;11.40;92.30;;;;;;5023566;28;20033;-83
2022/10/05 11:37:17;;;;;;;2.67;1.13;;;11.40;92.80;;;;;;5019625;28;20391;-85
2022/10/05 11:40:04;;;;;;;1.15;1.00;;;11.60;92.90;;;;;;5012230;28;20026;-83
2022/10/05 11:42:32;;;;;;;1.27;1.17;;;11.70;92.40;;;;;;5017153;28;20407;-83
2022/10/05 11:45:35;;;;;;;5.35;1.60;;;11.50;92.40;;;;;;5013935;28;20470;-83
2022/10/05 11:48:35;;;;;;;2.90;0.98;;;11.40;92.80;;;;;;5001317;28;20111;-86
2022/10/05 11:51:19;;;;;;;1.42;0.98;;;11.40;92.70;;;;;;5005564;28;20484;-85
2022/10/05 11:54:22;;;;;;;1.60;1.15;;;11.50;92.40;;;;;;5000404;28;20021;-84
2022/10/05 11:57:09;;;;;;;0.60;0.50;;;11.60;91.90;;;;;;4999337;28;20113;-85
2022/10/05 12:00:14;;;;;;;;;;;11.70;91.30;;;;;;5011925;28;20022;-84
2022/10/05 12:02:51;;;;;;;4.65;2.75;;;11.60;91.20;;;;;;4917431;29;20361;-82
2022/10/05 12:05:31;;;;;;;1.50;0.68;;;11.50;91.80;;;;;;4906987;29;20129;-81
2022/10/05 12:08:30;;;;;;;1.95;0.90;;;11.30;91.90;;;;;;4910248;29;20506;-82
2022/10/05 12:11:31;;;;;;;1.27;0.70;;;11.10;92.60;;;;;;4919075;29;20100;-80
2022/10/05 12:14:07;;;;;;;2.88;2.28;;;10.80;93.60;;;;;;4910393;29;20057;-86
2022/10/05 12:16:40;;;;;;;3.20;1.00;;;10.60;94.70;;;;;;4925651;29;20032;-85
2022/10/05 12:19:28;;;;;;;3.05;1.90;;;10.30;95.30;;;;;;4928028;29;20025;-84
2022/10/05 12:22:09;;;;;;;4.25;1.48;;;10.20;96.10;;;;;;4927722;29;20062;-84
2022/10/05 12:24:35;;;;;;;1.15;0.88;;;10.10;96.50;;;;;;4902402;29;20521;-85
2022/10/05 12:27:06;;;;;;;1.58;0.93;;;10.10;96.80;;;;;;4918081;29;20048;-84
2022/10/05 12:29:48;;;;;;;1.67;0.88;;;10.20;97.00;;;;;;4917234;29;20028;-84
2022/10/05 12:32:39;;;;;;;1.65;0.93;;;10.20;97.10;;;;;;4903114;28;20043;-84
2022/10/05 12:38:34;;;;;;;1.42;1.20;;;10.20;97.00;;;;;;5198109;23;20050;-84
2022/10/05 12:41:15;;;;;;;3.80;0.75;;;10.10;96.90;;;;;;5003376;28;20106;-83
2022/10/05 12:43:53;;;;;;;2.85;1.00;;;9.80;97.10;;;;;;5006337;28;20035;-83
2022/10/05 12:46:27;;;;;;;1.70;0.80;;;9.70;97.70;;;;;;5010151;28;20094;-82
2022/10/05 12:49:32;;;;;;;2.38;1.00;;;9.70;98.00;;;;;;5001410;28;20115;-83
2022/10/05 12:52:04;;;;;;;2.58;0.85;;;9.70;98.00;;;;;;4944590;29;20111;-82
2022/10/05 12:55:01;;;;;;;1.00;0.90;;;9.60;98.30;;;;;;4977949;28;20491;-83
2022/10/05 12:58:01;;;;;;;1.33;0.93;;;9.60;98.20;;;;;;4997309;28;20027;-85
2022/10/05 13:00:36;;;;;;;3.85;1.55;;;9.80;98.40;;;;;;5018970;28;20053;-86
2022/10/05 13:03:20;;;;;;;0.95;0.55;;;9.80;98.30;;;;;;4998646;28;20030;-84
2022/10/05 13:06:06;;;;;;;1.75;0.93;;;9.80;98.00;;;;;;5002176;28;20395;-87
2022/10/05 13:09:09;;;;;;;2.33;0.82;;;9.60;98.00;;;;;;4993798;28;20391;-84
2022/10/05 13:11:44;;;;;;;1.88;1.13;;;9.50;98.30;;;;;;5000886;28;20030;-84
2022/10/05 13:14:35;;;;;;;1.67;1.13;;;9.50;98.50;;;;;;4999342;28;20115;-83
2022/10/05 13:17:36;;;;;;;4.25;1.67;;;9.40;99.00;;;;;;5006369;28;20037;-85
2022/10/05 13:20:31;;;;;;;3.75;1.20;;;9.60;99.30;;;;;;5009336;28;20014;-83
2022/10/05 13:23:21;;;;;;;3.17;1.60;;;9.80;99.40;;;;;;5018265;28;20046;-86
2022/10/05 13:26:06;;;;;;;1.15;0.90;;;9.80;99.30;;;;;;4991844;28;20027;-86
2022/10/05 13:29:17;;;;;;;2.70;1.23;;;9.90;99.20;;;;;;5015583;28;20482;-86
2022/10/05 13:31:54;;;;;;;3.38;2.00;;;9.80;99.00;;;;;;4948403;29;20030;-91
2022/10/05 13:34:45;;;;;;;6.72;2.60;;;9.70;99.10;;;;;;4928842;29;20055;-85
2022/10/05 13:37:17;;;;;;;4.10;2.67;;;9.60;99.10;;;;;;4976078;28;20137;-83
2022/10/05 13:40:04;;;;;;;3.45;1.38;;;9.60;99.30;;;;;;5002593;28;20030;-87
2022/10/05 13:42:47;;;;;;;2.25;1.27;;;9.50;99.40;;;;;;5003776;28;20042;-86
2022/10/05 13:45:25;;;;;;;3.03;1.70;;;9.60;99.60;;;;;;5005371;28;20038;-85
2022/10/05 13:48:00;;;;;;;4.25;1.63;;;9.60;99.70;;;;;;4983743;28;20034;-86
2022/10/05 13:50:29;;;;;;;2.65;1.60;;;9.70;99.50;;;;;;4997683;28;20547;-83
2022/10/05 13:53:17;;;;;;;4.97;1.50;;;9.80;99.20;;;;;;4998178;28;20034;-84
2022/10/05 13:56:09;;;;;;;1.25;0.98;;;9.90;99.10;;;;;;5001155;28;20042;-84
2022/10/05 13:58:46;;;;;;;3.70;1.30;;;9.90;98.60;;;;;;4980346;28;20038;-86
2022/10/05 14:01:15;;;;;;;5.32;1.95;;;9.90;98.60;;;;;;4967418;28;20074;-92
2022/10/05 14:04:05;;;;;;;3.30;1.75;;;9.90;98.70;;;;;;5006871;28;20061;-92
2022/10/05 14:06:36;;;;;;;4.30;2.00;;;9.90;98.60;;;;;;4995530;28;20010;-91
2022/10/05 14:09:05;;;;;;;3.03;2.03;;;10.00;98.90;;;;;;4995949;28;20061;-89
2022/10/05 14:11:38;;;;;;;2.42;1.58;;;10.00;99.00;;;;;;5042046;23;20057;-88
2022/10/05 14:15:01;;;;;;;3.50;0.88;;;10.00;98.80;;;;;;5013854;28;20082;-88
2022/10/05 14:17:39;;;;;;;4.47;2.30;;;10.00;98.40;;;;;;4974534;28;20022;-85
2022/10/05 14:20:24;;;;;;;1.85;1.40;;;10.00;98.10;;;;;;4995193;28;20384;-82
2022/10/05 14:23:21;;;;;;;2.42;1.45;;;9.90;97.90;;;;;;4995557;28;20038;-85
2022/10/05 14:25:52;;;;;;;4.90;2.00;;;9.80;97.70;;;;;;4993614;28;20116;-86
2022/10/05 14:28:29;;;;;;;5.65;1.38;;;9.70;97.80;;;;;;4978111;28;20177;-84
2022/10/05 14:31:04;;;;;;;1.73;0.80;;;9.60;97.70;;;;;;4994780;28;20021;-83
2022/10/05 14:33:33;;;;;;;1.42;0.88;;;9.40;97.60;;;;;;4994344;28;20633;-84